Temperatura - Umidità - Pioggia orarie dal 15-05-2022 al 23-05-2022

Intensità - Direzione vento orarie dal 15-05-2022 al 23-05-2022

Dati orari da stazione meteo dal 15-05-2022 al 23-05-2022

Nome Stazione Data Ora Temperatura [°C] Umidità [%] Pioggia [mm] Intensità vento[km/h] Direzione vento [°]
Mondovì 15-05-2022 02:00 16 91 0 4.7 27
Mondovì 15-05-2022 02:20 15.9 93 0 0 50
Mondovì 15-05-2022 02:30 15.3 94 0 5 33
Mondovì 15-05-2022 02:40 15.3 93 0 4.7 46
Mondovì 15-05-2022 02:50 15.2 93 0 4.3 92
Mondovì 15-05-2022 03:00 15 93 0 3.2 89
Mondovì 15-05-2022 03:10 14.9 93 0 2.2 63
Mondovì 15-05-2022 03:20 15 93 0 0 352
Mondovì 15-05-2022 03:30 15 94 0 3.6 304
Mondovì 15-05-2022 03:40 14.9 93 0 2.2 227
Mondovì 15-05-2022 03:50 14.8 93 0 4.7 100
Mondovì 15-05-2022 04:00 14.9 94 0 5.4 139
Mondovì 15-05-2022 04:10 15.2 93 0 4.7 163
Mondovì 15-05-2022 04:20 15.4 92 0 5.4 192
Mondovì 15-05-2022 04:30 15.5 90 0 5.4 192
Mondovì 15-05-2022 04:40 15.4 90 0 4.7 220
Mondovì 15-05-2022 04:50 15.2 90 0 4.7 195
Mondovì 15-05-2022 05:00 15.3 89 0 4.7 191
Mondovì 15-05-2022 05:10 15.3 89 0 4.7 229
Mondovì 15-05-2022 05:20 15.1 89 0 5.8 190
Mondovì 15-05-2022 05:30 15 89 0 4 181
Mondovì 15-05-2022 05:40 15 90 0 4.3 126
Mondovì 15-05-2022 05:50 14.7 91 0 3.6 128
Mondovì 15-05-2022 06:00 14.4 91 0 0 121
Mondovì 15-05-2022 06:10 14.3 92 0 0 207
Mondovì 15-05-2022 06:20 14.2 92 0 3.2 105
Mondovì 15-05-2022 06:30 14.5 92 0 5.8 97
Mondovì 15-05-2022 06:40 14.9 92 0 4 146
Mondovì 15-05-2022 06:50 15.8 90 0 5 172
Mondovì 15-05-2022 07:00 16.6 87 0 3.6 153
Mondovì 15-05-2022 07:10 17.7 83 0 4.3 110
Mondovì 15-05-2022 07:20 18.1 81 0 3.6 73
Mondovì 15-05-2022 07:30 18.3 80 0 3.2 73
Mondovì 15-05-2022 07:40 18.4 79 0 2.5 74
Mondovì 15-05-2022 07:50 18.9 79 0 3.2 73
Mondovì 15-05-2022 08:00 19.8 78 0 4.3 70
Mondovì 15-05-2022 08:10 21 75 0 4.7 215
Mondovì 15-05-2022 08:20 21.2 72 0 4.7 314
Mondovì 15-05-2022 08:30 20.6 73 0 7.6 304
Mondovì 15-05-2022 08:40 20.1 77 0 6.8 17
Mondovì 15-05-2022 08:50 20.4 78 0 4.3 22
Mondovì 15-05-2022 09:00 20.7 76 0 6.1 58
Mondovì 15-05-2022 09:10 20.8 76 0 8.6 64
Mondovì 15-05-2022 09:20 21.1 75 0 6.5 66
Mondovì 15-05-2022 09:30 21.7 73 0 8.6 205
Mondovì 15-05-2022 09:40 22.7 70 0 8.3 300
Mondovì 15-05-2022 09:50 22.8 68 0 8.6 293
Mondovì 15-05-2022 10:00 22.8 68 0 8.3 313
Mondovì 15-05-2022 10:10 23.9 67 0 7.9 314
Mondovì 15-05-2022 10:20 24 65 0 11.5 284
Mondovì 15-05-2022 10:30 24.3 65 0 9.4 296
Mondovì 15-05-2022 10:40 24.2 62 0 10.8 296
Mondovì 15-05-2022 10:50 24.5 62 0 9.4 303
Mondovì 15-05-2022 11:00 24.7 63 0 9.4 335
Mondovì 15-05-2022 11:10 24.8 62 0 10.1 304
Mondovì 15-05-2022 11:20 25.5 59 0 9 5
Mondovì 15-05-2022 11:30 26.1 61 0 12.2 342
Mondovì 15-05-2022 11:40 26.4 56 0 11.9 344
Mondovì 15-05-2022 11:50 25.8 57 0 11.9 310
Mondovì 15-05-2022 12:00 25.8 53 0 8.3 280
Mondovì 15-05-2022 12:10 26.1 55 0 8.6 327
Mondovì 15-05-2022 12:20 26.1 53 0 10.4 3
Mondovì 15-05-2022 12:30 26.2 54 0 9.7 1
Mondovì 15-05-2022 12:40 26.1 51 0 11.2 355
Mondovì 15-05-2022 12:50 26.1 51 0 11.2 5
Mondovì 15-05-2022 13:00 26.6 51 0 10.1 355
Mondovì 15-05-2022 13:10 26.6 51 0 8.6 6
Mondovì 15-05-2022 13:20 26.5 54 0 9.7 108
Mondovì 15-05-2022 13:30 26.8 55 0 9 122
Mondovì 15-05-2022 13:40 27.1 54 0 11.5 112
Mondovì 15-05-2022 13:50 27.2 52 0 12.2 120
Mondovì 15-05-2022 14:00 27.8 48 0 10.4 58
Mondovì 15-05-2022 14:10 27.7 46 0 10.4 24
Mondovì 15-05-2022 14:20 27.8 47 0 8.6 66
Mondovì 15-05-2022 14:30 28.2 46 0 13 38
Mondovì 15-05-2022 14:40 28.8 44 0 11.9 56
Mondovì 15-05-2022 14:50 28.6 48 0 16.9 81
Mondovì 15-05-2022 15:00 28.1 53 0 13.7 95
Mondovì 15-05-2022 15:10 28.4 53 0 17.6 69
Mondovì 15-05-2022 15:20 28.5 52 0 16.6 73
Mondovì 15-05-2022 15:30 27.2 54 0 13 76
Mondovì 15-05-2022 15:40 27.1 55 0 13.7 57
Mondovì 15-05-2022 15:50 26.4 56 0 13.3 34
Mondovì 15-05-2022 16:00 26.2 56 0 12.6 39
Mondovì 15-05-2022 16:10 26 54 0 8.3 84
Mondovì 15-05-2022 16:20 25.7 53 0 9 121
Mondovì 15-05-2022 16:30 25.2 57 0 18.4 223
Mondovì 15-05-2022 16:40 24 63 0 19.1 208
Mondovì 15-05-2022 16:50 22.4 67 0 21.2 253
Mondovì 15-05-2022 17:00 21.9 76 0 16.6 287
Mondovì 15-05-2022 17:10 20.6 81 0 13 243
Mondovì 15-05-2022 17:20 20.3 82 0 13 244
Mondovì 15-05-2022 17:30 21.1 81 0 7.6 248
Mondovì 15-05-2022 17:40 21.6 78 0 3.6 68
Mondovì 15-05-2022 17:50 21.9 77 0 6.8 252
Mondovì 15-05-2022 18:00 22.1 76 0 8.3 239
Mondovì 15-05-2022 18:10 22 76 0 7.9 225
Mondovì 15-05-2022 18:20 22.1 76 0 9 231
Mondovì 15-05-2022 18:30 22 74 0 8.3 225
Mondovì 15-05-2022 18:40 22.1 74 0 6.8 210
Mondovì 15-05-2022 18:50 22 74 0 6.8 216
Mondovì 15-05-2022 19:00 22 75 0 6.8 204
Mondovì 15-05-2022 19:10 22 75 0 6.1 181
Mondovì 15-05-2022 19:20 22 75 0 8.6 147
Mondovì 15-05-2022 19:30 22 74 0 5 134
Mondovì 15-05-2022 19:40 22 75 0 4.7 96
Mondovì 15-05-2022 19:50 21.6 77 0 6.5 98
Mondovì 15-05-2022 20:00 21.3 77 0 5.4 81
Mondovì 15-05-2022 20:10 21.1 77 0 6.1 82
Mondovì 15-05-2022 20:20 20.9 78 0 5.4 69
Mondovì 15-05-2022 20:30 20.7 79 0 4.7 70
Mondovì 15-05-2022 20:40 20.5 78 0 5.4 96
Mondovì 15-05-2022 20:50 20.2 78 0 8.6 136
Mondovì 15-05-2022 21:00 20.1 78 0 8.3 133
Mondovì 15-05-2022 21:10 19.9 78 0 8.3 114
Mondovì 15-05-2022 21:20 19.8 78 0 8.6 119
Mondovì 15-05-2022 21:30 19.8 78 0 9 122
Mondovì 15-05-2022 21:40 19.7 77 0 7.9 110
Mondovì 15-05-2022 21:50 19.5 77 0 7.2 81
Mondovì 15-05-2022 22:00 19.4 78 0 5 26
Mondovì 15-05-2022 22:10 19 82 0 6.5 285
Mondovì 15-05-2022 22:20 18.7 86 0 4.7 258
Mondovì 15-05-2022 22:30 18.4 88 0 4 220
Mondovì 15-05-2022 22:40 17.8 91 0 3.2 216
Mondovì 15-05-2022 22:50 17.5 92 0 3.2 216
Mondovì 15-05-2022 23:00 17.4 93 0 2.5 193
Mondovì 15-05-2022 23:10 17.5 92 0 0 220
Mondovì 15-05-2022 23:20 17.4 92 0 0 239
Mondovì 15-05-2022 23:30 16.8 93 0 4.7 229
Mondovì 15-05-2022 23:40 16.5 93 0 5.4 205
Mondovì 15-05-2022 23:50 16.6 93 0 3.6 234
Mondovì 16-05-2022 00:00 16.6 92 0 3.2 188
Mondovì 16-05-2022 00:10 16.7 92 0 5.4 158
Mondovì 16-05-2022 00:20 16.8 91 0 5.8 164
Mondovì 16-05-2022 00:30 16.8 91 0 7.2 147
Mondovì 16-05-2022 00:40 16.8 90 0 6.5 110
Mondovì 16-05-2022 00:50 16.3 91 0 6.1 198
Mondovì 16-05-2022 01:00 16.2 91 0 3.6 215
Mondovì 16-05-2022 01:10 15.6 93 0 5 224
Mondovì 16-05-2022 01:20 15.4 94 0 3.2 194
Mondovì 16-05-2022 01:30 15.7 93 0 5.4 125
Mondovì 16-05-2022 01:40 15.7 93 0 6.8 138
Mondovì 16-05-2022 01:50 15.6 92 0 4.7 135
Mondovì 16-05-2022 02:00 15.5 92 0 3.6 159
Mondovì 16-05-2022 02:20 16 93 0 3.2 240
Mondovì 16-05-2022 02:30 14.5 95 0 0 244
Mondovì 16-05-2022 02:40 14.6 95 0 2.9 234
Mondovì 16-05-2022 02:50 14.7 95 0 4 199
Mondovì 16-05-2022 03:00 14.8 94 0 4.3 164
Mondovì 16-05-2022 03:10 14.8 93 0 0 226
Mondovì 16-05-2022 03:20 14.7 93 0 6.1 171
Mondovì 16-05-2022 03:30 14.8 93 0 3.6 199
Mondovì 16-05-2022 03:40 14.4 93 0 4 195
Mondovì 16-05-2022 03:50 14.5 93 0 5 165
Mondovì 16-05-2022 04:00 14.6 92 0 4 136
Mondovì 16-05-2022 04:10 14.3 92 0 4.3 197
Mondovì 16-05-2022 04:20 13.9 93 0 4 199
Mondovì 16-05-2022 04:30 14 93 0 2.9 213
Mondovì 16-05-2022 04:40 13.7 94 0 2.9 263
Mondovì 16-05-2022 04:50 13.7 94 0 2.5 220
Mondovì 16-05-2022 05:00 13.4 94 0 4 211
Mondovì 16-05-2022 05:10 13.4 95 0 4.3 192
Mondovì 16-05-2022 05:20 13.6 94 0 5.8 193
Mondovì 16-05-2022 05:30 13.6 93 0 5 165
Mondovì 16-05-2022 05:40 13.8 93 0 6.1 172
Mondovì 16-05-2022 05:50 13.7 92 0 2.9 219
Mondovì 16-05-2022 06:00 13.3 93 0 4.3 202
Mondovì 16-05-2022 06:10 13.2 93 0 4.7 193
Mondovì 16-05-2022 06:20 13.3 93 0 2.5 193
Mondovì 16-05-2022 06:30 13.6 92 0 4.3 194
Mondovì 16-05-2022 06:40 14.4 92 0 3.2 113
Mondovì 16-05-2022 06:50 15 90 0 2.9 297
Mondovì 16-05-2022 07:00 15.7 88 0 3.2 252
Mondovì 16-05-2022 07:10 16.5 84 0 2.2 219
Mondovì 16-05-2022 07:20 17.7 83 0 3.6 295
Mondovì 16-05-2022 07:30 18.6 78 0 4.3 270
Mondovì 16-05-2022 07:40 19.3 74 0 3.2 169
Mondovì 16-05-2022 07:50 19.7 72 0 4.7 226
Mondovì 16-05-2022 08:00 20.4 69 0 4 268
Mondovì 16-05-2022 08:10 21.2 68 0 3.6 86
Mondovì 16-05-2022 08:20 21.2 68 0 6.1 55
Mondovì 16-05-2022 08:30 21.1 69 0 5.4 43
Mondovì 16-05-2022 08:40 21.5 68 0 6.1 38
Mondovì 16-05-2022 08:50 21.8 67 0 5.4 19
Mondovì 16-05-2022 09:00 21.6 67 0 5 32
Mondovì 16-05-2022 09:10 21.8 67 0 6.5 51
Mondovì 16-05-2022 09:20 22.7 68 0 6.8 30
Mondovì 16-05-2022 09:30 23.4 65 0 6.8 43
Mondovì 16-05-2022 09:40 23.8 59 0 5.4 42
Mondovì 16-05-2022 09:50 23.8 58 0 6.8 44
Mondovì 16-05-2022 10:00 23.8 58 0 7.2 37
Mondovì 16-05-2022 10:10 24.1 56 0 6.1 339
Mondovì 16-05-2022 10:20 24.3 53 0 9.4 312
Mondovì 16-05-2022 10:30 23.7 52 0 8.3 305
Mondovì 16-05-2022 10:40 24.8 52 0 5.8 329
Mondovì 16-05-2022 10:50 25.8 52 0 8.6 335
Mondovì 16-05-2022 11:00 25.3 54 0 10.8 359
Mondovì 16-05-2022 11:10 25.2 56 0 7.9 259
Mondovì 16-05-2022 11:20 25.1 56 0 9.7 317
Mondovì 16-05-2022 11:30 24.9 57 0 7.6 330
Mondovì 16-05-2022 11:40 24.6 58 0 10.8 321
Mondovì 16-05-2022 11:50 24.9 58 0 10.1 353
Mondovì 16-05-2022 12:00 25.5 58 0 11.9 33
Mondovì 16-05-2022 12:10 26.2 57 0 9 76
Mondovì 16-05-2022 12:20 26.5 56 0 10.1 320
Mondovì 16-05-2022 12:30 26.5 54 0 10.1 357
Mondovì 16-05-2022 12:40 26.5 56 0 10.8 348
Mondovì 16-05-2022 12:50 26 56 0 9.4 344
Mondovì 16-05-2022 13:00 25.6 56 0 10.4 311
Mondovì 16-05-2022 13:10 25.8 56 0 7.9 291
Mondovì 16-05-2022 13:20 26 56 0 9 320
Mondovì 16-05-2022 13:30 26.6 55 0 9 13
Mondovì 16-05-2022 13:40 26.4 57 0 7.6 90
Mondovì 16-05-2022 13:50 27.2 56 0 7.9 57
Mondovì 16-05-2022 14:00 27.7 54 0 9.4 63
Mondovì 16-05-2022 14:10 27.6 52 0 11.9 34
Mondovì 16-05-2022 14:20 27.7 51 0 10.8 30
Mondovì 16-05-2022 14:30 27.8 51 0 10.8 114
Mondovì 16-05-2022 14:40 27.7 51 0 13.7 32
Mondovì 16-05-2022 14:50 27.8 53 0 13.3 116
Mondovì 16-05-2022 15:00 27.6 55 0 10.1 129
Mondovì 16-05-2022 15:10 28 54 0 11.9 81
Mondovì 16-05-2022 15:20 28.1 54 0 12.2 32
Mondovì 16-05-2022 15:30 27.9 55 0 13.3 68
Mondovì 16-05-2022 15:40 28 55 0 11.9 50
Mondovì 16-05-2022 15:50 28.2 55 0 15.8 76
Mondovì 16-05-2022 16:00 27.9 57 0 13.3 62
Mondovì 16-05-2022 16:10 28 57 0 15.5 66
Mondovì 16-05-2022 16:20 27.7 57 0 13.3 59
Mondovì 16-05-2022 16:30 27.6 58 0 17.6 68
Mondovì 16-05-2022 16:40 27.7 59 0 15.8 74
Mondovì 16-05-2022 16:50 27 60 0 16.2 65
Mondovì 16-05-2022 17:00 26.5 59 0 16.6 69
Mondovì 16-05-2022 17:10 26.3 60 0 15.5 54
Mondovì 16-05-2022 17:20 26.5 60 0 14.8 59
Mondovì 16-05-2022 17:30 27.2 58 0 17.6 74
Mondovì 16-05-2022 17:40 27.6 58 0 17.3 91
Mondovì 16-05-2022 17:50 26.9 57 0.4 17.3 72
Mondovì 16-05-2022 18:00 26.1 59 0 16.9 85
Mondovì 16-05-2022 18:10 25.8 60 0 18.7 77
Mondovì 16-05-2022 18:20 24.9 62 0 20.9 73
Mondovì 16-05-2022 18:30 24.1 63 0 16.2 75
Mondovì 16-05-2022 18:40 24.2 63 0 15.1 70
Mondovì 16-05-2022 18:50 23.9 64 0 17.6 72
Mondovì 16-05-2022 19:00 23.8 65 0 17.6 77
Mondovì 16-05-2022 19:10 23.2 66 0 14.4 78
Mondovì 16-05-2022 19:20 23.3 66 0 12.6 66
Mondovì 16-05-2022 19:30 23.1 69 0 17.3 74
Mondovì 16-05-2022 19:40 22.3 70 0 13.7 92
Mondovì 16-05-2022 19:50 22.1 72 0 12.6 77
Mondovì 16-05-2022 20:00 21.5 74 0 10.8 93
Mondovì 16-05-2022 20:10 20.7 76 0 11.5 89
Mondovì 16-05-2022 20:20 20.2 78 0 12.2 85
Mondovì 16-05-2022 20:30 19.8 78 0 12.6 76
Mondovì 16-05-2022 20:40 19.5 80 0 10.8 81
Mondovì 16-05-2022 20:50 19.2 81 0 11.9 80
Mondovì 16-05-2022 21:00 18.9 82 0 10.8 76
Mondovì 16-05-2022 21:10 18.6 83 0 10.4 89
Mondovì 16-05-2022 21:20 18.3 85 0 8.6 96
Mondovì 16-05-2022 21:30 18 85 0 10.1 87
Mondovì 16-05-2022 21:40 17.9 85 0 9 90
Mondovì 16-05-2022 21:50 17.9 86 0 11.9 104
Mondovì 16-05-2022 22:00 17.8 86 0 9 93
Mondovì 16-05-2022 22:10 17.7 86 0 7.6 82
Mondovì 16-05-2022 22:20 17.6 87 0 7.2 99
Mondovì 16-05-2022 22:30 17.3 88 0 9 104
Mondovì 16-05-2022 22:40 17 89 0 8.3 108
Mondovì 16-05-2022 22:50 16.7 89 0 9.4 105
Mondovì 16-05-2022 23:00 16.6 90 0 9 111
Mondovì 16-05-2022 23:10 16.6 90 0 8.6 84
Mondovì 16-05-2022 23:20 16.6 90 0 9.7 108
Mondovì 16-05-2022 23:30 16.5 90 0 9.4 104
Mondovì 16-05-2022 23:40 16.5 90 0 5.8 106
Mondovì 16-05-2022 23:50 16.3 91 0 4.7 96
Mondovì 17-05-2022 00:00 16.3 91 0 4.3 101
Mondovì 17-05-2022 00:10 16.3 92 0 4.3 93
Mondovì 17-05-2022 00:20 16.3 91 0 5.4 83
Mondovì 17-05-2022 00:30 16.3 91 0 5.4 77
Mondovì 17-05-2022 00:40 16.3 91 0 3.2 71
Mondovì 17-05-2022 00:50 16.1 92 0 4.3 74
Mondovì 17-05-2022 01:00 16.1 92 0 5.4 94
Mondovì 17-05-2022 01:10 15.9 93 0 7.6 117
Mondovì 17-05-2022 01:20 15.9 93 0 4.7 154
Mondovì 17-05-2022 01:30 15.8 93 0 2.9 138
Mondovì 17-05-2022 01:40 15.8 93 0 0 103
Mondovì 17-05-2022 01:50 15.8 93 0 4 78
Mondovì 17-05-2022 02:00 15.9 93 0 4.3 119
Mondovì 17-05-2022 02:20 16.7 93 0 3.2 94
Mondovì 17-05-2022 02:30 15.8 93 0 4.7 41
Mondovì 17-05-2022 02:40 15.7 94 0 3.6 85
Mondovì 17-05-2022 02:50 15.6 94 0 2.9 106
Mondovì 17-05-2022 03:00 15.4 95 0 3.2 88
Mondovì 17-05-2022 03:10 15.4 95 0 2.2 79
Mondovì 17-05-2022 03:20 15.4 95 0 2.9 53
Mondovì 17-05-2022 03:30 15.5 95 0 3.6 25
Mondovì 17-05-2022 03:40 15.4 95 0 5.4 44
Mondovì 17-05-2022 03:50 15.3 96 0 0 34
Mondovì 17-05-2022 04:00 15.1 96 0 0 1
Mondovì 17-05-2022 04:10 15.1 97 0 2.9 24
Mondovì 17-05-2022 04:20 15.5 97 0 5 144
Mondovì 17-05-2022 04:30 15.5 96 0 4.3 137
Mondovì 17-05-2022 04:40 15.4 96 0 4.7 163
Mondovì 17-05-2022 04:50 15.7 96 0 6.8 129
Mondovì 17-05-2022 05:00 15.7 95 0 4 173
Mondovì 17-05-2022 05:10 15.6 94 0 2.5 196
Mondovì 17-05-2022 05:20 15.4 95 0 4.7 193
Mondovì 17-05-2022 05:30 15.6 95 0 6.5 196
Mondovì 17-05-2022 05:40 15.4 95 0 4.7 204
Mondovì 17-05-2022 05:50 15.3 95 0 5 209
Mondovì 17-05-2022 06:00 15.3 95 0 4.7 215
Mondovì 17-05-2022 06:10 15.1 95 0 5 203
Mondovì 17-05-2022 06:20 15.3 96 0 4.3 177
Mondovì 17-05-2022 06:30 15.6 96 0 4.7 128
Mondovì 17-05-2022 06:40 15.8 95 0 0 67
Mondovì 17-05-2022 06:50 16.2 94 0 4.3 78
Mondovì 17-05-2022 07:00 16.9 92 0 2.9 126
Mondovì 17-05-2022 07:10 17.6 90 0 4.3 220
Mondovì 17-05-2022 07:20 18.5 87 0 6.1 198
Mondovì 17-05-2022 07:30 19.3 84 0 4.3 137
Mondovì 17-05-2022 07:40 20.1 81 0 3.2 135
Mondovì 17-05-2022 07:50 20.6 78 0 4 112
Mondovì 17-05-2022 08:00 21.1 77 0 4 86
Mondovì 17-05-2022 08:10 21.6 75 0 3.6 72
Mondovì 17-05-2022 08:20 21.8 75 0 5 104
Mondovì 17-05-2022 08:30 22.7 74 0 6.1 340
Mondovì 17-05-2022 08:40 22.7 72 0 9.4 306
Mondovì 17-05-2022 08:50 21.5 74 0 10.1 301
Mondovì 17-05-2022 09:00 22 73 0 6.5 280
Mondovì 17-05-2022 09:10 22.1 73 0 8.6 267
Mondovì 17-05-2022 09:20 23 72 0 8.6 211
Mondovì 17-05-2022 09:30 23.2 69 0 9.4 249
Mondovì 17-05-2022 09:40 24.2 68 0 7.9 258
Mondovì 17-05-2022 09:50 23.9 68 0 8.6 246
Mondovì 17-05-2022 10:00 23.9 69 0 7.2 292
Mondovì 17-05-2022 10:10 24.3 67 0 7.2 309
Mondovì 17-05-2022 10:20 24.3 67 0 11.2 313
Mondovì 17-05-2022 10:30 24.5 68 0 10.8 318
Mondovì 17-05-2022 10:40 24.8 66 0 9.7 271
Mondovì 17-05-2022 10:50 25.2 67 0 10.1 287
Mondovì 17-05-2022 11:00 25.1 67 0 10.4 253
Mondovì 17-05-2022 11:10 25.5 67 0 10.4 321
Mondovì 17-05-2022 11:20 26.3 66 0 9.4 284
Mondovì 17-05-2022 11:30 26.3 65 0 10.1 292
Mondovì 17-05-2022 11:40 26.1 64 0 10.4 181
Mondovì 17-05-2022 11:50 26.1 66 0 8.3 239
Mondovì 17-05-2022 12:00 26.4 64 0 6.5 82
Mondovì 17-05-2022 12:10 26.8 63 0 10.8 10
Mondovì 17-05-2022 12:20 27.1 63 0 7.9 9
Mondovì 17-05-2022 12:30 27.2 62 0 10.4 343
Mondovì 17-05-2022 12:40 27.1 63 0 10.8 58
Mondovì 17-05-2022 12:50 27.1 65 0 12.2 102
Mondovì 17-05-2022 13:00 27.5 62 0 13.3 35
Mondovì 17-05-2022 13:10 28.8 58 0 9.4 319
Mondovì 17-05-2022 13:20 28.7 58 0 13 23
Mondovì 17-05-2022 13:30 28.3 58 0 13.7 17
Mondovì 17-05-2022 13:40 28.6 59 0 10.8 19
Mondovì 17-05-2022 13:50 28.7 56 0 12.2 312
Mondovì 17-05-2022 14:00 29.1 58 0 13.7 10
Mondovì 17-05-2022 14:10 29.2 58 0 11.5 335
Mondovì 17-05-2022 14:20 29.1 58 0 14.4 344
Mondovì 17-05-2022 14:30 29 57 0 12.6 18
Mondovì 17-05-2022 14:40 29 59 0 11.9 18
Mondovì 17-05-2022 14:50 29.6 59 0 13.3 40
Mondovì 17-05-2022 15:00 29.8 58 0 15.5 347
Mondovì 17-05-2022 15:10 29.4 58 0 13 26
Mondovì 17-05-2022 15:20 29.6 57 0 18 36
Mondovì 17-05-2022 15:30 29.7 57 0 17.6 358
Mondovì 17-05-2022 15:40 29.4 59 0 17.3 358
Mondovì 17-05-2022 15:50 29.9 59 0 13.7 2
Mondovì 17-05-2022 16:00 30.2 55 0 13 9
Mondovì 17-05-2022 16:10 30.3 54 0 12.6 19
Mondovì 17-05-2022 16:20 30.4 57 0 16.2 31
Mondovì 17-05-2022 16:30 30 59 0 11.5 50
Mondovì 17-05-2022 16:40 29.7 58 0 16.2 76
Mondovì 17-05-2022 16:50 28.9 59 0 15.5 78
Mondovì 17-05-2022 17:00 28.3 59 0 14.8 81
Mondovì 17-05-2022 17:10 29.2 57 0 15.1 73
Mondovì 17-05-2022 17:20 29.7 55 0 14.8 71
Mondovì 17-05-2022 17:30 30 55 0 16.9 70
Mondovì 17-05-2022 17:40 29.7 54 0 13.3 74
Mondovì 17-05-2022 17:50 29.6 54 0 15.8 53
Mondovì 17-05-2022 18:00 29.4 56 0 15.1 50
Mondovì 17-05-2022 18:10 29 57 0 14.4 64
Mondovì 17-05-2022 18:20 28.9 49 0 14.8 69
Mondovì 17-05-2022 18:30 28.5 50 0 13 57
Mondovì 17-05-2022 18:40 28.6 51 0 12.6 52
Mondovì 17-05-2022 18:50 28.7 52 0 12.2 53
Mondovì 17-05-2022 19:00 28.4 57 0 12.2 51
Mondovì 17-05-2022 19:10 28.5 58 0 11.2 65
Mondovì 17-05-2022 19:20 28.3 58 0 13 45
Mondovì 17-05-2022 19:30 27.7 59 0 11.5 49
Mondovì 17-05-2022 19:40 27.2 61 0 8.6 40
Mondovì 17-05-2022 19:50 26.8 62 0 8.6 52
Mondovì 17-05-2022 20:00 26.4 63 0 7.6 41
Mondovì 17-05-2022 20:10 25.6 63 0 7.9 80
Mondovì 17-05-2022 20:20 25.2 64 0 10.4 72
Mondovì 17-05-2022 20:30 24.9 66 0 8.6 85
Mondovì 17-05-2022 20:40 24.3 64 0 7.9 81
Mondovì 17-05-2022 20:50 24 67 0 7.2 88
Mondovì 17-05-2022 21:00 23.4 69 0 5.4 91
Mondovì 17-05-2022 21:10 22.9 70 0 4.3 91
Mondovì 17-05-2022 21:20 22.7 70 0 6.5 78
Mondovì 17-05-2022 21:30 22.7 68 0 6.1 63
Mondovì 17-05-2022 21:40 22.4 72 0 6.1 82
Mondovì 17-05-2022 21:50 22 75 0 6.1 109
Mondovì 17-05-2022 22:00 21.2 75 0 5.8 92
Mondovì 17-05-2022 22:10 20.9 76 0 5 100
Mondovì 17-05-2022 22:20 20.6 77 0 5.4 96
Mondovì 17-05-2022 22:30 20.3 78 0 6.1 112
Mondovì 17-05-2022 22:40 20 80 0 5 126
Mondovì 17-05-2022 22:50 20 81 0 5 80
Mondovì 17-05-2022 23:00 19.9 83 0 4 103
Mondovì 17-05-2022 23:10 19.5 84 0 5.8 102
Mondovì 17-05-2022 23:20 19.3 85 0 0 33
Mondovì 17-05-2022 23:30 19.2 87 0 3.6 10
Mondovì 17-05-2022 23:40 19.1 88 0 3.6 24
Mondovì 17-05-2022 23:50 19 89 0 2.9 56
Mondovì 18-05-2022 00:00 18.8 91 0 4.3 101
Mondovì 18-05-2022 00:10 18.6 92 0 4.3 139
Mondovì 18-05-2022 00:20 18.6 92 0 3.6 131
Mondovì 18-05-2022 00:30 18.6 90 0 4.7 92
Mondovì 18-05-2022 00:40 18.3 92 0 4 95
Mondovì 18-05-2022 00:50 18.1 93 0 4 85
Mondovì 18-05-2022 01:00 18 94 0 3.6 102
Mondovì 18-05-2022 01:10 18 94 0 5 73
Mondovì 18-05-2022 01:20 17.9 93 0 2.5 122
Mondovì 18-05-2022 01:30 17.8 92 0 5 106
Mondovì 18-05-2022 01:40 17.7 92 0 2.9 83
Mondovì 18-05-2022 01:50 17.6 92 0 0 328
Mondovì 18-05-2022 02:00 17.4 93 0 0 281
Mondovì 18-05-2022 02:20 17.9 94 0 4.7 110
Mondovì 18-05-2022 02:30 17.3 94 0 5.8 149
Mondovì 18-05-2022 02:40 17.3 92 0 4.7 152
Mondovì 18-05-2022 02:50 17.5 92 0 5 120
Mondovì 18-05-2022 03:00 17.4 91 0 4.7 190
Mondovì 18-05-2022 03:10 17.3 91 0 2.2 216
Mondovì 18-05-2022 03:20 16.9 91 0 2.9 227
Mondovì 18-05-2022 03:30 16.9 92 0 3.2 181
Mondovì 18-05-2022 03:40 16.8 92 0 3.2 185
Mondovì 18-05-2022 03:50 16.5 92 0 3.2 243
Mondovì 18-05-2022 04:00 16.2 93 0 2.9 205
Mondovì 18-05-2022 04:10 16.7 93 0 4 177
Mondovì 18-05-2022 04:20 16.7 93 0 2.9 94
Mondovì 18-05-2022 04:30 16.8 93 0 5 149
Mondovì 18-05-2022 04:40 16.9 93 0 5.4 134
Mondovì 18-05-2022 04:50 16.9 95 0 5.8 140
Mondovì 18-05-2022 05:00 17 93 0 7.2 163
Mondovì 18-05-2022 05:10 16.9 94 0 4 207
Mondovì 18-05-2022 05:20 16.7 95 0 3.6 240
Mondovì 18-05-2022 05:30 16.2 95 0 0 261
Mondovì 18-05-2022 05:40 16.2 96 0 5.4 288
Mondovì 18-05-2022 05:50 16.1 97 0 4 268
Mondovì 18-05-2022 06:00 15.7 99 0 2.9 225
Mondovì 18-05-2022 06:10 15.3 99 0 5.8 115
Mondovì 18-05-2022 06:20 15.4 100 0 4.3 102
Mondovì 18-05-2022 06:30 15.8 100 0 4.3 110
Mondovì 18-05-2022 06:40 16.3 100 0 4.3 120
Mondovì 18-05-2022 06:50 17 98 0 2.5 113
Mondovì 18-05-2022 07:00 18 96 0 2.9 250
Mondovì 18-05-2022 07:10 18.9 93 0 3.2 213
Mondovì 18-05-2022 07:20 20.1 89 0 0 32
Mondovì 18-05-2022 07:30 20.3 85 0 5.8 33
Mondovì 18-05-2022 07:40 21 83 0 3.6 37
Mondovì 18-05-2022 07:50 21.6 77 0 2.5 25
Mondovì 18-05-2022 08:00 22.1 75 0 8.6 350
Mondovì 18-05-2022 08:10 21.7 76 0 7.6 296
Mondovì 18-05-2022 08:20 23 75 0 4.3 279
Mondovì 18-05-2022 08:30 24.1 73 0 5.4 337
Mondovì 18-05-2022 08:40 24.5 69 0 6.5 317
Mondovì 18-05-2022 08:50 24.2 71 0 6.8 309
Mondovì 18-05-2022 09:00 24.1 72 0 7.2 311
Mondovì 18-05-2022 09:10 24.2 69 0 8.3 324
Mondovì 18-05-2022 09:20 24.8 68 0 8.3 290
Mondovì 18-05-2022 09:30 25.4 67 0 7.2 300
Mondovì 18-05-2022 09:40 25.4 66 0 5.8 287
Mondovì 18-05-2022 09:50 26 66 0 4.7 290
Mondovì 18-05-2022 10:00 26 66 0 9.4 297
Mondovì 18-05-2022 10:10 26 66 0 7.9 295
Mondovì 18-05-2022 10:20 27 62 0 7.6 309
Mondovì 18-05-2022 10:30 27.1 60 0 9 303
Mondovì 18-05-2022 10:40 26.4 62 0 9.4 297
Mondovì 18-05-2022 10:50 26.7 61 0 10.4 295
Mondovì 18-05-2022 11:00 27.4 61 0 10.4 344
Mondovì 18-05-2022 11:10 27.7 59 0 10.8 328
Mondovì 18-05-2022 11:20 27.8 58 0 11.2 301
Mondovì 18-05-2022 11:30 27.9 56 0 9.7 324
Mondovì 18-05-2022 11:40 28.1 56 0 10.8 330
Mondovì 18-05-2022 11:50 28.3 56 0 10.1 331
Mondovì 18-05-2022 12:00 28.4 57 0 11.9 355
Mondovì 18-05-2022 12:10 28.5 60 0 13.7 39
Mondovì 18-05-2022 12:20 28.7 58 0 11.5 1
Mondovì 18-05-2022 12:30 29.1 57 0 11.9 17
Mondovì 18-05-2022 12:40 29.4 59 0 11.9 326
Mondovì 18-05-2022 12:50 29.3 59 0 11.5 351
Mondovì 18-05-2022 13:00 29.1 57 0 11.5 3
Mondovì 18-05-2022 13:10 29.6 57 0 12.6 358
Mondovì 18-05-2022 13:20 29.5 56 0 11.9 9
Mondovì 18-05-2022 13:30 29.8 50 0 13 303
Mondovì 18-05-2022 13:40 29.7 50 0 13.3 357
Mondovì 18-05-2022 13:50 30.1 49 0 14 331
Mondovì 18-05-2022 14:00 30.3 50 0 15.8 325
Mondovì 18-05-2022 14:10 29.9 54 0 12.2 326
Mondovì 18-05-2022 14:20 29.6 55 0 15.1 314
Mondovì 18-05-2022 14:30 30 51 0 15.1 11
Mondovì 18-05-2022 14:40 30.6 54 0 15.1 357
Mondovì 18-05-2022 14:50 30.2 55 0 16.6 16
Mondovì 18-05-2022 15:00 30.6 51 0 15.8 22
Mondovì 18-05-2022 15:10 31 50 0 13 13
Mondovì 18-05-2022 15:20 30.5 51 0 11.9 34
Mondovì 18-05-2022 15:30 30.6 51 0 15.5 25
Mondovì 18-05-2022 15:40 30.9 49 0 13 340
Mondovì 18-05-2022 15:50 30.9 49 0 13.3 32
Mondovì 18-05-2022 16:00 31.1 49 0 14 330
Mondovì 18-05-2022 16:10 31 49 0 15.5 8
Mondovì 18-05-2022 16:20 31.2 51 0 14.8 343
Mondovì 18-05-2022 16:30 31.2 49 0 14.4 10
Mondovì 18-05-2022 16:40 31 46 0 15.8 12
Mondovì 18-05-2022 16:50 30.7 48 0 14.8 29
Mondovì 18-05-2022 17:00 29.9 55 0 11.5 43
Mondovì 18-05-2022 17:10 28.7 55 0 9.7 74
Mondovì 18-05-2022 17:20 29.3 53 0 9.4 75
Mondovì 18-05-2022 17:30 29.2 52 0 7.9 55
Mondovì 18-05-2022 17:40 29.2 51 0 8.6 21
Mondovì 18-05-2022 17:50 28.9 51 0 10.4 68
Mondovì 18-05-2022 18:00 28.6 48 0 12.2 56
Mondovì 18-05-2022 18:10 29.7 47 0 9.7 46
Mondovì 18-05-2022 18:20 29.5 45 0 10.4 61
Mondovì 18-05-2022 18:30 29.6 45 0 11.9 55
Mondovì 18-05-2022 18:40 29.4 44 0 8.6 76
Mondovì 18-05-2022 18:50 28.8 51 0 13 85
Mondovì 18-05-2022 19:00 27.7 51 0 9.7 92
Mondovì 18-05-2022 19:10 26.9 54 0 5.4 98
Mondovì 18-05-2022 19:20 26.3 54 0 4.7 96
Mondovì 18-05-2022 19:30 26.1 55 0 6.5 82
Mondovì 18-05-2022 19:40 26 56 0 5.4 83
Mondovì 18-05-2022 19:50 25.7 57 0 6.5 80
Mondovì 18-05-2022 20:00 25.4 58 0 6.1 75
Mondovì 18-05-2022 20:10 25.1 60 0 6.8 96
Mondovì 18-05-2022 20:20 24.7 61 0 5.8 102
Mondovì 18-05-2022 20:30 24.5 62 0 4.7 56
Mondovì 18-05-2022 20:40 24.3 61 0 4.3 40
Mondovì 18-05-2022 20:50 24.2 61 0 5 24
Mondovì 18-05-2022 21:00 24 62 0 4.3 43
Mondovì 18-05-2022 21:10 23.8 65 0 5.4 181
Mondovì 18-05-2022 21:20 23.6 68 0 9 212
Mondovì 18-05-2022 21:30 23.5 69 0 10.8 229
Mondovì 18-05-2022 21:40 23.3 69 0 11.5 252
Mondovì 18-05-2022 21:50 23.2 67 0 8.3 250
Mondovì 18-05-2022 22:00 23 70 0 7.6 269
Mondovì 18-05-2022 22:10 22.8 70 0 10.4 281
Mondovì 18-05-2022 22:20 22.8 70 0 7.9 238
Mondovì 18-05-2022 22:30 22.3 71 0 9.7 250
Mondovì 18-05-2022 22:40 22 71 0 5.8 234
Mondovì 18-05-2022 22:50 21.8 72 0 8.6 230
Mondovì 18-05-2022 23:00 21.5 73 0 11.2 231
Mondovì 18-05-2022 23:10 21.1 74 0 13.7 231
Mondovì 18-05-2022 23:20 20.8 76 0 13.7 228
Mondovì 18-05-2022 23:30 20.6 77 0 11.9 228
Mondovì 18-05-2022 23:40 20.5 78 0 9.4 225
Mondovì 18-05-2022 23:50 20.4 79 0 10.4 225
Mondovì 19-05-2022 00:00 20.4 79 0 9 241
Mondovì 19-05-2022 00:10 20.5 79 0 7.2 242
Mondovì 19-05-2022 00:20 20.6 79 0 7.9 258
Mondovì 19-05-2022 00:30 20.7 78 0 9 270
Mondovì 19-05-2022 00:40 20.7 79 0 9.7 283
Mondovì 19-05-2022 00:50 20.7 79 0 10.8 282
Mondovì 19-05-2022 01:00 20.6 79 0 8.3 278
Mondovì 19-05-2022 01:10 20.4 81 0 5.8 254
Mondovì 19-05-2022 01:20 20.2 82 0 6.8 243
Mondovì 19-05-2022 01:30 20 82 0 6.8 225
Mondovì 19-05-2022 01:40 19.9 82 0 7.6 250
Mondovì 19-05-2022 01:50 19.9 82 0 9 253
Mondovì 19-05-2022 02:00 19.9 82 0 7.2 251
Mondovì 19-05-2022 02:20 20.4 83 0 9.7 240
Mondovì 19-05-2022 02:30 19.4 85 0 10.1 247
Mondovì 19-05-2022 02:40 19.2 86 0 10.4 242
Mondovì 19-05-2022 02:50 18.9 88 0 8.6 238
Mondovì 19-05-2022 03:00 18.6 87 0 8.6 234
Mondovì 19-05-2022 03:10 18.5 87 0 8.3 233
Mondovì 19-05-2022 03:20 18.4 88 0 7.2 231
Mondovì 19-05-2022 03:30 18.2 91 0 9 230
Mondovì 19-05-2022 03:40 18 93 0 9 221
Mondovì 19-05-2022 03:50 17.9 94 0 7.2 226
Mondovì 19-05-2022 04:00 17.9 95 0 9 245
Mondovì 19-05-2022 04:10 17.9 97 0 8.6 245
Mondovì 19-05-2022 04:20 17.8 97 0 10.8 251
Mondovì 19-05-2022 04:30 17.6 98 0 9.4 254
Mondovì 19-05-2022 04:40 17.5 98 0.2 10.4 239
Mondovì 19-05-2022 04:50 17.4 98 0 7.9 248
Mondovì 19-05-2022 05:00 17.2 98 0 8.6 239
Mondovì 19-05-2022 05:10 17.1 99 0.2 10.4 235
Mondovì 19-05-2022 05:20 17 99 0 8.6 236
Mondovì 19-05-2022 05:30 16.9 99 0 9 224
Mondovì 19-05-2022 05:40 16.9 98 0 9 220
Mondovì 19-05-2022 05:50 17 97 0 7.6 223
Mondovì 19-05-2022 06:00 17.1 97 0 9.4 221
Mondovì 19-05-2022 06:10 17.1 97 0 7.9 221
Mondovì 19-05-2022 06:20 17.1 96 0 8.3 213
Mondovì 19-05-2022 06:30 17.1 95 0 7.6 201
Mondovì 19-05-2022 06:40 17.2 93 0 6.5 198
Mondovì 19-05-2022 06:50 17.6 92 0 7.6 190
Mondovì 19-05-2022 07:00 17.9 90 0 7.6 190
Mondovì 19-05-2022 07:10 18.2 88 0 7.6 195
Mondovì 19-05-2022 07:20 18.7 87 0 6.8 211
Mondovì 19-05-2022 07:30 18.8 86 0 8.3 191
Mondovì 19-05-2022 07:40 18.8 86 0 8.6 226
Mondovì 19-05-2022 07:50 18.7 85 0 8.6 219
Mondovì 19-05-2022 08:00 18.7 84 0 6.1 211
Mondovì 19-05-2022 08:10 19.1 84 0 5.8 215
Mondovì 19-05-2022 08:20 19.2 83 0 6.5 189
Mondovì 19-05-2022 08:30 19.3 81 0 6.8 183
Mondovì 19-05-2022 08:40 19.6 81 0 9 231
Mondovì 19-05-2022 08:50 19.8 79 0 12.6 231
Mondovì 19-05-2022 09:00 20 76 0 11.9 234
Mondovì 19-05-2022 09:10 20 73 0 12.6 231
Mondovì 19-05-2022 09:20 20.5 72 0 11.9 228
Mondovì 19-05-2022 09:30 22.2 71 0 10.8 228
Mondovì 19-05-2022 09:40 23.5 64 0 14 247
Mondovì 19-05-2022 09:50 23.9 59 0 13.7 238
Mondovì 19-05-2022 10:00 24.3 59 0 14 226
Mondovì 19-05-2022 10:10 23.9 60 0 11.9 247
Mondovì 19-05-2022 10:20 24.9 60 0 13.3 236
Mondovì 19-05-2022 10:30 25.3 57 0 14.8 244
Mondovì 19-05-2022 10:40 24 57 0 11.2 247
Mondovì 19-05-2022 10:50 24.1 58 0 15.5 274
Mondovì 19-05-2022 11:00 24.7 59 0 13.3 278
Mondovì 19-05-2022 11:10 24.6 58 0 15.5 300
Mondovì 19-05-2022 11:20 25.9 56 0 10.8 239
Mondovì 19-05-2022 11:30 26.3 54 0 17.3 271
Mondovì 19-05-2022 11:40 25.8 55 0 13.7 309
Mondovì 19-05-2022 11:50 26.5 54 0 13.3 272
Mondovì 19-05-2022 12:00 26.8 55 0 14.4 280
Mondovì 19-05-2022 12:10 26.1 56 0 14 291
Mondovì 19-05-2022 12:20 26.5 57 0 11.9 285
Mondovì 19-05-2022 12:30 26.2 58 0 18.4 275
Mondovì 19-05-2022 12:40 26.6 57 0 9 285
Mondovì 19-05-2022 12:50 26.6 56 0 12.2 268
Mondovì 19-05-2022 13:00 27 54 0 12.2 256
Mondovì 19-05-2022 13:10 27.2 51 0 12.6 269
Mondovì 19-05-2022 13:20 27.3 51 0 14.4 312
Mondovì 19-05-2022 13:30 27.1 53 0 9 296
Mondovì 19-05-2022 13:40 27.3 53 0 12.2 253
Mondovì 19-05-2022 13:50 27 52 0 13.3 278
Mondovì 19-05-2022 14:00 27 53 0 13.7 323
Mondovì 19-05-2022 14:10 27 54 0 15.8 330
Mondovì 19-05-2022 14:20 26.7 54 0 14 336
Mondovì 19-05-2022 14:30 27 55 0 14.4 335
Mondovì 19-05-2022 14:40 27.2 55 0 12.2 341
Mondovì 19-05-2022 14:50 27.6 53 0 12.6 326
Mondovì 19-05-2022 15:00 27.5 53 0 14.8 335
Mondovì 19-05-2022 15:10 27.3 52 0 13.3 334
Mondovì 19-05-2022 15:20 27.8 54 0 11.9 3
Mondovì 19-05-2022 15:30 27.8 50 0 16.6 340
Mondovì 19-05-2022 15:40 27.8 48 0 13.3 313
Mondovì 19-05-2022 15:50 28 51 0 14.4 324
Mondovì 19-05-2022 16:00 28 50 0 12.6 6
Mondovì 19-05-2022 16:10 28.2 48 0 12.2 330
Mondovì 19-05-2022 16:20 28 50 0 14.8 332
Mondovì 19-05-2022 16:30 27.6 51 0 14.4 19
Mondovì 19-05-2022 16:40 28.6 50 0 10.1 334
Mondovì 19-05-2022 16:50 28.5 50 0 11.2 315
Mondovì 19-05-2022 17:00 27.8 51 0 13.7 321
Mondovì 19-05-2022 17:10 27.8 51 0 13.3 325
Mondovì 19-05-2022 17:20 28.4 48 0 13.3 309
Mondovì 19-05-2022 17:30 28 47 0 11.2 337
Mondovì 19-05-2022 17:40 28 47 0 12.6 326
Mondovì 19-05-2022 17:50 27.4 48 0 11.5 309
Mondovì 19-05-2022 18:00 27.5 48 0 10.8 341
Mondovì 19-05-2022 18:10 27.3 50 0 9.4 303
Mondovì 19-05-2022 18:20 27.2 50 0 9 283
Mondovì 19-05-2022 18:30 27.3 52 0 10.4 301
Mondovì 19-05-2022 18:40 26.7 52 0 7.2 280
Mondovì 19-05-2022 18:50 26.5 53 0 6.5 274
Mondovì 19-05-2022 19:00 26 54 0 6.1 284
Mondovì 19-05-2022 19:10 25.4 58 0 7.2 277
Mondovì 19-05-2022 19:20 25 60 0 5.8 310
Mondovì 19-05-2022 19:30 24.9 60 0 6.1 305
Mondovì 19-05-2022 19:40 24.7 64 0 4 270
Mondovì 19-05-2022 19:50 24.7 65 0 5 298
Mondovì 19-05-2022 20:00 24.7 63 0 6.1 305
Mondovì 19-05-2022 20:10 24.6 60 0 6.1 312
Mondovì 19-05-2022 20:20 24.4 60 0 6.8 305
Mondovì 19-05-2022 20:30 24.2 63 0 5 298
Mondovì 19-05-2022 20:40 23.9 66 0 3.6 257
Mondovì 19-05-2022 20:50 23.2 67 0 3.2 238
Mondovì 19-05-2022 21:00 22.5 69 0 3.2 219
Mondovì 19-05-2022 21:10 21.9 72 0 2.9 215
Mondovì 19-05-2022 21:20 22.1 73 0 7.2 185
Mondovì 19-05-2022 21:30 22.1 74 0 7.2 187
Mondovì 19-05-2022 21:40 22 75 0 8.6 178
Mondovì 19-05-2022 21:50 21.6 75 0 9 177
Mondovì 19-05-2022 22:00 21.5 75 0 9 184
Mondovì 19-05-2022 22:10 21.4 74 0 10.8 191
Mondovì 19-05-2022 22:20 21.3 73 0 9.4 192
Mondovì 19-05-2022 22:30 21.3 74 0 11.2 189
Mondovì 19-05-2022 22:40 21.3 72 0 7.9 185
Mondovì 19-05-2022 22:50 21.1 73 0 9 234
Mondovì 19-05-2022 23:00 21 76 0 10.1 250
Mondovì 19-05-2022 23:10 20.6 78 0 6.8 232
Mondovì 19-05-2022 23:20 20.6 79 0 7.9 190
Mondovì 19-05-2022 23:30 20.7 74 0 6.5 179
Mondovì 19-05-2022 23:40 20.6 74 0 6.1 179
Mondovì 19-05-2022 23:50 20.6 76 0 6.5 155
Mondovì 20-05-2022 00:00 20.5 78 0 4.7 72
Mondovì 20-05-2022 00:10 19.9 79 0 2.9 26
Mondovì 20-05-2022 00:20 19.8 80 0 6.5 26
Mondovì 20-05-2022 00:30 19.6 82 0 3.6 73
Mondovì 20-05-2022 00:40 19.2 84 0 3.6 47
Mondovì 20-05-2022 00:50 18.9 84 0 3.6 37
Mondovì 20-05-2022 01:00 18.7 85 0 5 18
Mondovì 20-05-2022 01:10 18.6 87 0 4.3 37
Mondovì 20-05-2022 01:20 18.2 86 0 2.9 66
Mondovì 20-05-2022 01:30 17.9 90 0 2.9 90
Mondovì 20-05-2022 01:40 17.6 91 0 4 98
Mondovì 20-05-2022 01:50 17.4 93 0 2.5 116
Mondovì 20-05-2022 02:00 17.2 93 0 0 177
Mondovì 20-05-2022 02:20 17.8 93 0 2.9 202
Mondovì 20-05-2022 02:30 17.5 92 0 5 196
Mondovì 20-05-2022 02:40 17.4 91 0 2.5 226
Mondovì 20-05-2022 02:50 17 92 0 1.8 262
Mondovì 20-05-2022 03:00 17 91 0 5.4 210
Mondovì 20-05-2022 03:10 16.7 92 0 4 268
Mondovì 20-05-2022 03:20 16.4 92 0 3.2 219
Mondovì 20-05-2022 03:30 16.5 91 0 4.7 99
Mondovì 20-05-2022 03:40 16.3 91 0 2.5 195
Mondovì 20-05-2022 03:50 16.2 90 0 3.2 195
Mondovì 20-05-2022 04:00 16.3 91 0 5 108
Mondovì 20-05-2022 04:10 16.4 91 0 4.3 103
Mondovì 20-05-2022 04:20 16.4 92 0 2.9 203
Mondovì 20-05-2022 04:30 16.4 93 0 5.4 185
Mondovì 20-05-2022 04:40 16.4 93 0 6.5 115
Mondovì 20-05-2022 04:50 16.2 93 0 4.3 99
Mondovì 20-05-2022 05:00 16.1 92 0 3.6 301
Mondovì 20-05-2022 05:10 16.1 92 0 4 245
Mondovì 20-05-2022 05:20 15.6 93 0 3.6 192
Mondovì 20-05-2022 05:30 15.6 93 0 5 201
Mondovì 20-05-2022 05:40 15.7 92 0 4.7 188
Mondovì 20-05-2022 05:50 16 92 0 5.4 155
Mondovì 20-05-2022 06:00 16 90 0 5 162
Mondovì 20-05-2022 06:10 16 90 0 4 227
Mondovì 20-05-2022 06:20 15.8 90 0 3.2 224
Mondovì 20-05-2022 06:30 15.7 90 0 3.6 221
Mondovì 20-05-2022 06:40 16 90 0 2.5 212
Mondovì 20-05-2022 06:50 16.4 90 0 4.7 75
Mondovì 20-05-2022 07:00 16.8 89 0 5.4 115
Mondovì 20-05-2022 07:10 17.9 89 0 2.2 27
Mondovì 20-05-2022 07:20 19 85 0 5 13
Mondovì 20-05-2022 07:30 19.9 81 0 2.9 53
Mondovì 20-05-2022 07:40 20.2 79 0 4.3 42
Mondovì 20-05-2022 07:50 20.6 76 0 5 51
Mondovì 20-05-2022 08:00 21.1 77 0 5 27
Mondovì 20-05-2022 08:10 21.4 77 0 4.7 91
Mondovì 20-05-2022 08:20 22.1 77 0 4.3 59
Mondovì 20-05-2022 08:30 23.1 74 0 3.2 346
Mondovì 20-05-2022 08:40 23.3 71 0 6.1 27
Mondovì 20-05-2022 08:50 23.2 72 0 6.1 30
Mondovì 20-05-2022 09:00 23.4 72 0 6.1 41
Mondovì 20-05-2022 09:10 23.2 72 0 6.8 23
Mondovì 20-05-2022 09:20 23.6 70 0 7.2 58
Mondovì 20-05-2022 09:30 24.2 68 0 6.5 63
Mondovì 20-05-2022 09:40 24.9 66 0 5.4 134
Mondovì 20-05-2022 09:50 25 66 0 7.2 64
Mondovì 20-05-2022 10:00 25.4 63 0 7.9 61
Mondovì 20-05-2022 10:10 26 61 0 6.1 122
Mondovì 20-05-2022 10:20 26.1 62 0 5.8 109
Mondovì 20-05-2022 10:30 26.2 60 0 7.9 49
Mondovì 20-05-2022 10:40 26.2 62 0 7.6 36
Mondovì 20-05-2022 10:50 26.9 55 0 7.6 50
Mondovì 20-05-2022 11:00 26.7 55 0 10.4 48
Mondovì 20-05-2022 11:10 27.3 55 0 5.8 51
Mondovì 20-05-2022 11:20 27.5 57 0 9.4 54
Mondovì 20-05-2022 11:30 27.1 57 0 9 37
Mondovì 20-05-2022 11:40 27.2 56 0 8.3 352
Mondovì 20-05-2022 11:50 27.2 58 0 12.2 9
Mondovì 20-05-2022 12:00 27 57 0 8.6 275
Mondovì 20-05-2022 12:10 27.8 57 0 9 94
Mondovì 20-05-2022 12:20 28 56 0 11.5 78
Mondovì 20-05-2022 12:30 28.5 56 0 9 352
Mondovì 20-05-2022 12:40 28.7 55 0 9.4 34
Mondovì 20-05-2022 12:50 29 55 0 14 35
Mondovì 20-05-2022 13:00 28.4 56 0 10.4 2
Mondovì 20-05-2022 13:10 28.7 53 0 13.3 52
Mondovì 20-05-2022 13:20 28.9 53 0 13 33
Mondovì 20-05-2022 13:30 29 50 0 15.5 38
Mondovì 20-05-2022 13:40 28.8 51 0 14 84
Mondovì 20-05-2022 13:50 29 48 0 13.3 71
Mondovì 20-05-2022 14:00 29.3 47 0 13.7 42
Mondovì 20-05-2022 14:10 29.4 47 0 12.6 58
Mondovì 20-05-2022 14:20 29.5 47 0 16.6 53
Mondovì 20-05-2022 14:30 29.1 47 0 14.8 42
Mondovì 20-05-2022 14:40 28.9 49 0 16.9 72
Mondovì 20-05-2022 14:50 29.3 49 0 15.8 62
Mondovì 20-05-2022 15:00 29.2 50 0 16.9 73
Mondovì 20-05-2022 15:10 28.8 51 0 16.6 68
Mondovì 20-05-2022 15:20 28.7 52 0 19.1 51
Mondovì 20-05-2022 15:30 28.6 52 0 19.1 68
Mondovì 20-05-2022 15:40 28.5 54 0 18 67
Mondovì 20-05-2022 15:50 28.4 55 0 19.1 64
Mondovì 20-05-2022 16:00 28.2 57 0 18 74
Mondovì 20-05-2022 16:10 28 57 0 19.1 66
Mondovì 20-05-2022 16:20 27.6 59 0 24.1 70
Mondovì 20-05-2022 16:30 27.6 58 0 18.4 59
Mondovì 20-05-2022 16:40 27.6 59 0 19.8 75
Mondovì 20-05-2022 16:50 27.3 59 0 22 73
Mondovì 20-05-2022 17:00 27.3 59 0 20.5 78
Mondovì 20-05-2022 17:10 27.2 60 0 18 70
Mondovì 20-05-2022 17:20 26.9 61 0 18 81
Mondovì 20-05-2022 17:30 26.2 61 0 18.4 72
Mondovì 20-05-2022 17:40 26.2 62 0 20.9 69
Mondovì 20-05-2022 17:50 25.7 63 0 21.2 76
Mondovì 20-05-2022 18:00 25.7 64 0 20.5 76
Mondovì 20-05-2022 18:10 25.1 65 0 18 75
Mondovì 20-05-2022 18:20 25.3 65 0 15.5 79
Mondovì 20-05-2022 18:30 25.4 66 0 14.4 90
Mondovì 20-05-2022 18:40 25.5 67 0 16.9 87
Mondovì 20-05-2022 18:50 24.9 69 0 13 89
Mondovì 20-05-2022 19:00 24.5 69 0 15.1 76
Mondovì 20-05-2022 19:10 24.1 66 0 16.6 87
Mondovì 20-05-2022 19:20 23.8 67 0 13.3 83
Mondovì 20-05-2022 19:30 23.5 68 0 13 71
Mondovì 20-05-2022 19:40 23.2 69 0 14 79
Mondovì 20-05-2022 19:50 22.8 71 0 12.2 85
Mondovì 20-05-2022 20:00 22.1 73 0 12.6 83
Mondovì 20-05-2022 20:10 21.5 75 0 13.3 73
Mondovì 20-05-2022 20:20 21 76 0 11.2 66
Mondovì 20-05-2022 20:30 20.6 78 0 13 65
Mondovì 20-05-2022 20:40 20.3 79 0 12.2 82
Mondovì 20-05-2022 20:50 20 80 0 11.2 73
Mondovì 20-05-2022 21:00 19.7 81 0 11.2 75
Mondovì 20-05-2022 21:10 19.5 81 0 6.8 71
Mondovì 20-05-2022 21:20 19.4 82 0 14 68
Mondovì 20-05-2022 21:30 19.2 83 0 11.9 80
Mondovì 20-05-2022 21:40 19 83 0 10.8 83
Mondovì 20-05-2022 21:50 18.9 84 0 9.7 74
Mondovì 20-05-2022 22:00 18.7 85 0 9.7 86
Mondovì 20-05-2022 22:10 18.6 86 0 10.8 80
Mondovì 20-05-2022 22:20 18.5 86 0 9 81
Mondovì 20-05-2022 22:30 18.4 87 0 7.6 90
Mondovì 20-05-2022 22:40 18.2 88 0 9.4 83
Mondovì 20-05-2022 22:50 18.2 88 0 10.1 76
Mondovì 20-05-2022 23:00 18.2 88 0 9.7 65
Mondovì 20-05-2022 23:10 18.1 89 0 10.4 70
Mondovì 20-05-2022 23:20 18.1 89 0 9 78
Mondovì 20-05-2022 23:30 18 89 0 7.6 95
Mondovì 20-05-2022 23:40 17.8 90 0 7.2 98
Mondovì 20-05-2022 23:50 17.8 90 0 10.4 96
Mondovì 21-05-2022 00:00 17.9 90 0 10.4 94
Mondovì 21-05-2022 00:10 17.8 91 0 10.1 98
Mondovì 21-05-2022 00:20 17.7 91 0 7.2 100
Mondovì 21-05-2022 00:30 17.5 92 0 5.8 87
Mondovì 21-05-2022 00:40 17.5 92 0 5.8 98
Mondovì 21-05-2022 00:50 17.5 92 0 7.2 67
Mondovì 21-05-2022 01:00 17.5 92 0 8.3 88
Mondovì 21-05-2022 01:10 17.5 92 0 6.8 96
Mondovì 21-05-2022 01:20 17.3 93 0 4.7 99
Mondovì 21-05-2022 01:30 17.3 93 0 7.9 87
Mondovì 21-05-2022 01:40 17.3 93 0 7.9 86
Mondovì 21-05-2022 01:50 17.3 93 0 6.5 96
Mondovì 21-05-2022 02:00 17.2 93 0 7.6 96
Mondovì 21-05-2022 02:20 17.9 94 0 9.7 109
Mondovì 21-05-2022 02:30 17.1 94 0 7.6 98
Mondovì 21-05-2022 02:40 17 94 0 7.9 99
Mondovì 21-05-2022 02:50 17.1 94 0 10.4 79
Mondovì 21-05-2022 03:00 17.2 94 0 7.9 73
Mondovì 21-05-2022 03:10 17.2 94 0 9 91
Mondovì 21-05-2022 03:20 17.1 93 0 9.4 88
Mondovì 21-05-2022 03:30 17 94 0 10.8 98
Mondovì 21-05-2022 03:40 16.9 94 0 9 111
Mondovì 21-05-2022 03:50 16.8 95 0 7.6 104
Mondovì 21-05-2022 04:00 16.7 95 0 7.9 108
Mondovì 21-05-2022 04:10 16.7 95 0 6.5 94
Mondovì 21-05-2022 04:20 16.6 95 0 5.8 101
Mondovì 21-05-2022 04:30 16.6 95 0 5.8 104
Mondovì 21-05-2022 04:40 16.4 96 0 7.6 97
Mondovì 21-05-2022 04:50 16.5 96 0 7.2 117
Mondovì 21-05-2022 05:00 16.4 96 0 5.8 124
Mondovì 21-05-2022 05:10 16.3 96 0 7.6 130
Mondovì 21-05-2022 05:20 16.3 96 0 6.8 123
Mondovì 21-05-2022 05:30 16.1 96 0 8.6 123
Mondovì 21-05-2022 05:40 16.1 96 0 9 126
Mondovì 21-05-2022 05:50 16.1 96 0 9 136
Mondovì 21-05-2022 06:00 16 96 0 8.6 114
Mondovì 21-05-2022 06:10 16 96 0 7.9 114
Mondovì 21-05-2022 06:20 16.1 97 0 6.8 115
Mondovì 21-05-2022 06:30 16.2 96 0 5.8 100
Mondovì 21-05-2022 06:40 16.4 96 0 9.4 112
Mondovì 21-05-2022 06:50 16.7 95 0 6.1 90
Mondovì 21-05-2022 07:00 17.1 94 0 5.4 107
Mondovì 21-05-2022 07:10 17.8 93 0 6.1 98
Mondovì 21-05-2022 07:20 18.7 91 0 5.4 76
Mondovì 21-05-2022 07:30 19 87 0 9.7 81
Mondovì 21-05-2022 07:40 19.4 85 0 9 104
Mondovì 21-05-2022 07:50 20 84 0 9.7 92
Mondovì 21-05-2022 08:00 20.4 82 0 8.6 99
Mondovì 21-05-2022 08:10 20.9 81 0 8.3 85
Mondovì 21-05-2022 08:20 21 79 0 10.4 98
Mondovì 21-05-2022 08:30 21.6 78 0 9.4 79
Mondovì 21-05-2022 08:40 21.9 76 0 9.7 87
Mondovì 21-05-2022 08:50 22.4 74 0 9 70
Mondovì 21-05-2022 09:00 22.4 73 0 10.1 85
Mondovì 21-05-2022 09:10 22.2 74 0 15.5 74
Mondovì 21-05-2022 09:20 22.4 73 0 14 87
Mondovì 21-05-2022 09:30 23.1 72 0 14 82
Mondovì 21-05-2022 09:40 23.4 70 0 14 74
Mondovì 21-05-2022 09:50 23.3 70 0 13.7 72
Mondovì 21-05-2022 10:00 23.6 71 0 14.4 74
Mondovì 21-05-2022 10:10 23.9 69 0 15.5 71
Mondovì 21-05-2022 10:20 24.5 68 0 14.8 77
Mondovì 21-05-2022 10:30 24.6 67 0 16.2 69
Mondovì 21-05-2022 10:40 25.3 67 0 14.4 78
Mondovì 21-05-2022 10:50 25.4 65 0 16.2 73
Mondovì 21-05-2022 11:00 25.4 65 0 15.8 68
Mondovì 21-05-2022 11:10 25.9 65 0 15.8 59
Mondovì 21-05-2022 11:20 25.9 64 0 15.8 73
Mondovì 21-05-2022 11:30 25.7 64 0 15.8 73
Mondovì 21-05-2022 11:40 26.4 64 0 15.5 69
Mondovì 21-05-2022 11:50 26.5 63 0 17.3 46
Mondovì 21-05-2022 12:00 26.7 64 0 17.6 57
Mondovì 21-05-2022 12:10 26.7 64 0 15.8 48
Mondovì 21-05-2022 12:20 26.5 63 0 15.8 61
Mondovì 21-05-2022 12:30 26.6 63 0 20.2 66
Mondovì 21-05-2022 12:40 26.3 65 0 16.6 64
Mondovì 21-05-2022 12:50 26.3 64 0 18.4 67
Mondovì 21-05-2022 13:00 26.2 64 0 16.2 69
Mondovì 21-05-2022 13:10 27 63 0 13.7 64
Mondovì 21-05-2022 13:20 27.5 61 0 15.1 50
Mondovì 21-05-2022 13:30 27.6 61 0 14.8 65
Mondovì 21-05-2022 13:40 28 60 0 17.3 59
Mondovì 21-05-2022 13:50 27.7 60 0 16.2 68
Mondovì 21-05-2022 14:00 27.8 60 0 17.6 75
Mondovì 21-05-2022 14:10 28 59 0 18.4 70
Mondovì 21-05-2022 14:20 28.3 59 0 15.8 49
Mondovì 21-05-2022 14:30 28 59 0 20.2 65
Mondovì 21-05-2022 14:40 28.3 59 0 16.2 61
Mondovì 21-05-2022 14:50 28.7 58 0 15.1 52
Mondovì 21-05-2022 15:00 28.8 58 0 18 49
Mondovì 21-05-2022 15:10 28.6 58 0 18 60
Mondovì 21-05-2022 15:20 28.3 59 0 15.1 60
Mondovì 21-05-2022 15:30 28.1 59 0 18.7 68
Mondovì 21-05-2022 15:40 28.1 59 0 16.2 63
Mondovì 21-05-2022 15:50 28.8 59 0 13 57
Mondovì 21-05-2022 16:00 29.1 58 0 13.3 53
Mondovì 21-05-2022 16:10 29.3 58 0 16.6 49
Mondovì 21-05-2022 16:20 29.1 58 0 18.4 70
Mondovì 21-05-2022 16:30 29.1 57 0 16.6 67
Mondovì 21-05-2022 16:40 28.6 58 0 14.8 67
Mondovì 21-05-2022 16:50 28.6 58 0 15.8 75
Mondovì 21-05-2022 17:00 28.4 59 0 17.6 66
Mondovì 21-05-2022 17:10 28.3 59 0 16.2 71
Mondovì 21-05-2022 17:20 28.1 60 0 16.9 70
Mondovì 21-05-2022 17:30 28.1 59 0 16.6 74
Mondovì 21-05-2022 17:40 28.1 64 0 16.2 68
Mondovì 21-05-2022 17:50 28 65 0 16.2 69
Mondovì 21-05-2022 18:00 27.7 64 0 14.4 54
Mondovì 21-05-2022 18:10 27.7 66 0 15.5 47
Mondovì 21-05-2022 18:20 26.8 67 0 13 68
Mondovì 21-05-2022 18:30 26.8 66 0 14 54
Mondovì 21-05-2022 18:40 26.7 66 0 15.5 37
Mondovì 21-05-2022 18:50 26.5 66 0 13.3 40
Mondovì 21-05-2022 19:00 26.5 67 0 14.4 51
Mondovì 21-05-2022 19:10 25.8 68 0 13.3 50
Mondovì 21-05-2022 19:20 25.5 69 0 13.7 60
Mondovì 21-05-2022 19:30 24.7 70 0 12.6 66
Mondovì 21-05-2022 19:40 24.4 71 0 13.7 69
Mondovì 21-05-2022 19:50 24 73 0 9.7 75
Mondovì 21-05-2022 20:00 23.9 73 0 10.4 76
Mondovì 21-05-2022 20:10 23.4 75 0 11.2 71
Mondovì 21-05-2022 20:20 22.6 76 0 9.4 70
Mondovì 21-05-2022 20:30 22.3 75 0 9 82
Mondovì 21-05-2022 20:40 21.9 76 0 9.4 66
Mondovì 21-05-2022 20:50 21.4 79 0 9.4 67
Mondovì 21-05-2022 21:00 21 83 0 9.4 81
Mondovì 21-05-2022 21:10 20.7 85 0 9 98
Mondovì 21-05-2022 21:20 20.2 87 0 10.4 101
Mondovì 21-05-2022 21:30 19.9 88 0 11.2 107
Mondovì 21-05-2022 21:40 19.7 87 0 11.2 98
Mondovì 21-05-2022 21:50 19.6 88 0 9.4 102
Mondovì 21-05-2022 22:00 19.3 86 0 10.1 95
Mondovì 21-05-2022 22:10 19.2 87 0 11.2 88
Mondovì 21-05-2022 22:20 19.2 89 0 9.4 101
Mondovì 21-05-2022 22:30 19.1 90 0 6.8 83
Mondovì 21-05-2022 22:40 18.9 90 0 6.8 74
Mondovì 21-05-2022 22:50 18.7 91 0 6.1 88
Mondovì 21-05-2022 23:00 18.5 92 0 7.6 94
Mondovì 21-05-2022 23:10 18.4 92 0 11.2 99
Mondovì 21-05-2022 23:20 18.3 93 0 11.5 108
Mondovì 21-05-2022 23:30 18.2 93 0 10.8 107
Mondovì 21-05-2022 23:40 18.1 93 0 10.4 104
Mondovì 21-05-2022 23:50 18 93 0 8.3 108
Mondovì 22-05-2022 00:00 17.9 93 0 10.4 109
Mondovì 22-05-2022 00:10 17.7 94 0 10.8 106

Riassuntivo giornaliero del 21-05-2022